Time,TemperatureF,DewpointF,PressureIn,WindDirection,WindDirectionDegrees,WindSpeedMPH,WindSpeedGustMPH,Humidity,HourlyPrecipIn,Conditions,Clouds,dailyrainin,SolarRadiationWatts/m^2,SoftwareType,DateUTC
2013-04-28 00:00:00,41.5,37.9,30.27,NNW,345,0.0,0.0,87,0.00,CLR,FEW,0.00,0.0,WeatherDisplay:10.37,2013-04-28 04:00:00,
2013-04-28 00:01:00,41.5,37.9,30.27,NNW,345,0.0,0.0,87,0.00,CLR,FEW,0.00,0.0,WeatherDisplay:10.37,2013-04-28 04:01:00,
2013-04-28 00:02:00,41.5,37.9,30.27,NNW,345,0.0,0.0,87,0.00,CLR,FEW,0.00,0.0,WeatherDisplay:10.37,2013-04-28 04:02:00,
2013-04-28 00:07:00,41.4,37.8,30.27,NNW,345,0.0,0.0,87,0.00,CLR,FEW,0.00,0.0,WeatherDisplay:10.37,2013-04-28 04:07:00,
2013-04-28 00:12:00,41.3,37.7,30.26,NNW,345,0.0,0.0,87,0.00,CLR,FEW,0.00,0.0,WeatherDisplay:10.37,2013-04-28 04:12:00,
2013-04-28 00:17:00,40.9,37.3,30.26,NNW,345,0.0,0.0,87,0.00,CLR,FEW,0.00,0.0,WeatherDisplay:10.37,2013-04-28 04:17:00,
2013-04-28 00:22:00,40.7,37.1,30.26,NNW,345,0.0,0.0,87,0.00,CLR,FEW,0.00,0.0,WeatherDisplay:10.37,2013-04-28 04:22:00,
2013-04-28 00:27:00,40.8,37.2,30.26,NNW,345,0.0,0.0,87,0.00,CLR,FEW,0.00,0.0,WeatherDisplay:10.37,2013-04-28 04:27:00,
2013-04-28 00:32:00,40.8,37.5,30.26,NNW,345,0.5,2.3,88,0.00,CLR,FEW,0.00,0.0,WeatherDisplay:10.37,2013-04-28 04:32:00,
2013-04-28 00:37:00,40.7,37.4,30.26,NNW,345,0.0,0.0,88,0.00,CLR,FEW,0.00,0.0,WeatherDisplay:10.37,2013-04-28 04:37:00,
2013-04-28 00:42:00,40.3,36.7,30.27,NNW,345,0.0,0.0,87,0.00,CLR,FEW,0.00,0.0,WeatherDisplay:10.37,2013-04-28 04:42:00,
2013-04-28 00:47:00,40.2,36.9,30.27,NNW,345,0.0,1.2,88,0.00,CLR,FEW,0.00,0.0,WeatherDisplay:10.37,2013-04-28 04:47:00,
2013-04-28 00:52:00,40.2,36.9,30.27,NNW,345,0.0,0.0,88,0.00,CLR,FEW,0.00,0.0,WeatherDisplay:10.37,2013-04-28 04:52:00,
2013-04-28 00:57:00,39.8,36.5,30.27,NNW,344,0.0,0.0,88,0.00,CLR,FEW,0.00,0.0,WeatherDisplay:10.37,2013-04-28 04:57:00,
2013-04-28 01:02:00,39.6,36.3,30.27,NNW,345,0.0,0.0,88,0.00,CLR,FEW,0.00,0.0,WeatherDisplay:10.37,2013-04-28 05:02:00,
2013-04-28 01:07:00,39.5,36.5,30.27,NNW,345,0.0,0.0,89,0.00,CLR,FEW,0.00,0.0,WeatherDisplay:10.37,2013-04-28 05:07:00,
2013-04-28 01:12:00,39.4,36.4,30.27,NNW,345,0.0,0.0,89,0.00,CLR,FEW,0.00,0.0,WeatherDisplay:10.37,2013-04-28 05:12:00,
2013-04-28 01:17:00,39.1,36.1,30.27,NNW,345,0.0,0.0,89,0.00,CLR,FEW,0.00,0.0,WeatherDisplay:10.37,2013-04-28 05:17:00,
2013-04-28 01:22:00,38.9,35.9,30.27,NNW,345,0.0,0.0,89,0.00,CLR,FEW,0.00,0.0,WeatherDisplay:10.37,2013-04-28 05:22:00,
2013-04-28 01:27:00,38.7,35.7,30.26,NNW,345,0.0,0.0,89,0.00,CLR,FEW,0.00,0.0,WeatherDisplay:10.37,2013-04-28 05:27:00,
2013-04-28 01:32:00,38.6,35.9,30.26,NNW,345,0.0,0.0,90,0.00,CLR,FEW,0.00,0.0,WeatherDisplay:10.37,2013-04-28 05:32:00,
2013-04-28 01:37:00,38.5,35.8,30.26,NNW,345,0.0,0.0,90,0.00,CLR,FEW,0.00,0.0,WeatherDisplay:10.37,2013-04-28 05:37:00,
2013-04-28 01:42:00,38.4,35.7,30.26,NNW,344,0.0,0.0,90,0.00,CLR,FEW,0.00,0.0,WeatherDisplay:10.37,2013-04-28 05:42:00,
2013-04-28 01:47:00,38.2,35.5,30.26,NNW,345,0.0,0.0,90,0.00,CLR,FEW,0.00,0.0,WeatherDisplay:10.37,2013-04-28 05:47:00,
2013-04-28 01:52:00,38.2,35.8,30.26,NNW,345,0.0,0.0,91,0.00,CLR,FEW,0.00,0.0,WeatherDisplay:10.37,2013-04-28 05:52:00,
2013-04-28 01:57:00,38.0,35.3,30.26,NNW,345,0.0,0.0,90,0.00,CLR,FEW,0.00,0.0,WeatherDisplay:10.37,2013-04-28 05:57:00,
2013-04-28 02:02:00,37.9,35.5,30.26,NNW,345,0.0,0.0,91,0.00,CLR,FEW,0.00,0.0,WeatherDisplay:10.37,2013-04-28 06:02:00,
2013-04-28 02:07:00,37.8,35.4,30.26,NNW,345,0.0,0.0,91,0.00,CLR,FEW,0.00,0.0,WeatherDisplay:10.37,2013-04-28 06:07:00,
2013-04-28 02:12:00,37.8,35.4,30.26,NNW,345,0.0,0.0,91,0.00,CLR,FEW,0.00,0.0,WeatherDisplay:10.37,2013-04-28 06:12:00,
2013-04-28 02:17:00,37.7,35.3,30.26,NNW,345,0.0,0.0,91,0.00,CLR,FEW,0.00,0.0,WeatherDisplay:10.37,2013-04-28 06:17:00,
2013-04-28 02:22:00,37.8,35.4,30.25,NNW,345,0.0,0.0,91,0.00,CLR,FEW,0.00,0.0,WeatherDisplay:10.37,2013-04-28 06:22:00,
2013-04-28 02:27:00,38.0,35.9,30.25,NNW,345,0.0,0.0,92,0.00,CLR,FEW,0.00,0.0,WeatherDisplay:10.37,2013-04-28 06:27:00,
2013-04-28 02:32:00,37.8,35.7,30.25,NNW,345,0.0,0.0,92,0.00,CLR,FEW,0.00,0.0,WeatherDisplay:10.37,2013-04-28 06:32:00,
2013-04-28 02:37:00,37.7,35.6,30.25,NNW,345,0.0,0.0,92,0.00,CLR,FEW,0.00,0.0,WeatherDisplay:10.37,2013-04-28 06:37:00,
2013-04-28 02:42:00,37.5,35.4,30.25,NNW,345,0.0,0.0,92,0.00,CLR,FEW,0.00,0.0,WeatherDisplay:10.37,2013-04-28 06:42:00,
2013-04-28 02:47:00,37.2,35.1,30.25,NNW,345,0.0,0.0,92,0.00,CLR,FEW,0.00,0.0,WeatherDisplay:10.37,2013-04-28 06:47:00,
2013-04-28 02:52:00,37.0,34.9,30.25,NNW,345,0.0,0.0,92,0.00,CLR,FEW,0.00,0.0,WeatherDisplay:10.37,2013-04-28 06:52:00,
2013-04-28 02:57:00,36.8,34.7,30.25,NNW,345,0.0,0.0,92,0.00,CLR,FEW,0.00,0.0,WeatherDisplay:10.37,2013-04-28 06:57:00,
2013-04-28 03:02:00,36.7,34.6,30.25,NNW,345,0.0,0.0,92,0.00,CLR,FEW,0.00,0.0,WeatherDisplay:10.37,2013-04-28 07:02:00,
2013-04-28 03:07:00,36.6,34.5,30.25,NNW,345,0.0,0.0,92,0.00,CLR,FEW,0.00,0.0,WeatherDisplay:10.37,2013-04-28 07:07:00,
2013-04-28 03:12:00,36.5,34.4,30.25,NNW,345,0.0,0.0,92,0.00,CLR,FEW,0.00,0.0,WeatherDisplay:10.37,2013-04-28 07:12:00,
2013-04-28 03:17:00,36.4,34.3,30.25,NNW,345,0.0,0.0,92,0.00,CLR,FEW,0.00,0.0,WeatherDisplay:10.37,2013-04-28 07:17:00,
2013-04-28 03:22:00,36.3,34.5,30.25,NNW,345,0.0,0.0,93,0.00,CLR,FEW,0.00,0.0,WeatherDisplay:10.37,2013-04-28 07:22:00,
2013-04-28 03:27:00,36.2,34.4,30.25,NNW,345,0.0,0.0,93,0.00,CLR,FEW,0.00,0.0,WeatherDisplay:10.37,2013-04-28 07:27:00,
2013-04-28 03:32:00,36.3,34.5,30.25,NNW,345,0.0,0.0,93,0.00,CLR,FEW,0.00,0.0,WeatherDisplay:10.37,2013-04-28 07:32:00,
2013-04-28 03:37:00,36.3,34.5,30.25,NNW,345,0.0,0.0,93,0.00,CLR,FEW,0.00,0.0,WeatherDisplay:10.37,2013-04-28 07:37:00,
2013-04-28 03:42:00,36.2,34.4,30.25,NNW,345,0.0,0.0,93,0.00,CLR,FEW,0.00,0.0,WeatherDisplay:10.37,2013-04-28 07:42:00,
2013-04-28 03:47:00,36.1,34.3,30.25,NNW,345,0.0,0.0,93,0.00,CLR,FEW,0.00,0.0,WeatherDisplay:10.37,2013-04-28 07:47:00,
2013-04-28 03:52:00,36.1,34.3,30.24,NNW,345,0.0,0.0,93,0.00,CLR,FEW,0.00,0.0,WeatherDisplay:10.37,2013-04-28 07:52:00,
2013-04-28 03:57:00,35.9,34.1,30.24,NNW,345,0.0,0.0,93,0.00,CLR,FEW,0.00,0.0,WeatherDisplay:10.37,2013-04-28 07:57:00,
2013-04-28 04:02:00,35.8,34.0,30.24,NNW,345,0.0,0.0,93,0.00,CLR,FEW,0.00,0.0,WeatherDisplay:10.37,2013-04-28 08:02:00,
2013-04-28 04:07:00,35.6,33.8,30.25,NNW,345,0.0,0.0,93,0.00,CLR,FEW,0.00,0.0,WeatherDisplay:10.37,2013-04-28 08:07:00,
2013-04-28 04:12:00,35.5,33.7,30.25,NNW,345,0.0,0.0,93,0.00,CLR,FEW,0.00,0.0,WeatherDisplay:10.37,2013-04-28 08:12:00,
2013-04-28 04:17:00,35.4,33.6,30.25,NNW,345,0.0,0.0,93,0.00,CLR,FEW,0.00,0.0,WeatherDisplay:10.37,2013-04-28 08:17:00,
2013-04-28 04:22:00,35.2,33.4,30.25,NNW,345,0.0,0.0,93,0.00,CLR,FEW,0.00,0.0,WeatherDisplay:10.37,2013-04-28 08:22:00,
2013-04-28 04:27:00,35.2,33.4,30.25,NNW,344,0.0,0.0,93,0.00,CLR,FEW,0.00,0.0,WeatherDisplay:10.37,2013-04-28 08:27:00,
2013-04-28 04:32:00,35.1,33.5,30.25,NNW,345,0.0,0.0,94,0.00,CLR,FEW,0.00,0.0,WeatherDisplay:10.37,2013-04-28 08:32:00,
2013-04-28 04:37:00,35.1,33.5,30.25,NNW,345,0.0,0.0,94,0.00,CLR,FEW,0.00,0.0,WeatherDisplay:10.37,2013-04-28 08:37:00,
2013-04-28 04:42:00,35.2,33.6,30.25,NNW,345,0.0,0.0,94,0.00,CLR,FEW,0.00,0.0,WeatherDisplay:10.37,2013-04-28 08:42:00,
2013-04-28 04:47:00,35.5,33.9,30.25,NNW,345,0.0,0.0,94,0.00,CLR,FEW,0.00,0.0,WeatherDisplay:10.37,2013-04-28 08:47:00,
2013-04-28 04:52:00,35.4,33.8,30.25,NNW,345,0.0,0.0,94,0.00,CLR,FEW,0.00,0.0,WeatherDisplay:10.37,2013-04-28 08:52:00,
2013-04-28 04:57:00,35.2,33.6,30.25,NNW,345,0.0,0.0,94,0.00,CLR,FEW,0.00,0.0,WeatherDisplay:10.37,2013-04-28 08:57:00,
2013-04-28 05:02:00,35.0,33.4,30.25,NNW,345,0.0,0.0,94,0.00,CLR,FEW,0.00,0.0,WeatherDisplay:10.37,2013-04-28 09:02:00,
2013-04-28 05:07:00,35.2,33.6,30.26,NNW,345,0.0,0.0,94,0.00,CLR,FEW,0.00,0.0,WeatherDisplay:10.37,2013-04-28 09:07:00,
2013-04-28 05:12:00,35.2,33.6,30.26,NNW,345,0.0,0.0,94,0.00,CLR,FEW,0.00,0.0,WeatherDisplay:10.37,2013-04-28 09:12:00,
2013-04-28 05:17:00,35.0,33.4,30.26,NNW,345,0.0,0.0,94,0.00,CLR,FEW,0.00,0.0,WeatherDisplay:10.37,2013-04-28 09:17:00,
2013-04-28 05:22:00,34.9,33.3,30.25,NNW,345,0.0,0.0,94,0.00,CLR,FEW,0.00,0.0,WeatherDisplay:10.37,2013-04-28 09:22:00,
2013-04-28 05:27:00,34.9,33.3,30.25,NNW,345,0.0,0.0,94,0.00,CLR,FEW,0.00,0.0,WeatherDisplay:10.37,2013-04-28 09:27:00,
2013-04-28 05:32:00,34.7,33.2,30.25,NNW,345,0.0,0.0,94,0.00,CLR,FEW,0.00,5.0,WeatherDisplay:10.37,2013-04-28 09:32:00,
2013-04-28 05:37:00,34.7,33.2,30.25,NNW,345,0.0,2.3,94,0.00,CLR,FEW,0.00,7.0,WeatherDisplay:10.37,2013-04-28 09:37:00,
2013-04-28 05:42:00,34.6,33.1,30.25,NNW,345,0.1,0.0,94,0.00,CLR,FEW,0.00,9.0,WeatherDisplay:10.37,2013-04-28 09:42:00,
2013-04-28 05:47:00,34.6,33.1,30.25,NNW,345,0.0,0.0,94,0.00,CLR,FEW,0.00,12.0,WeatherDisplay:10.37,2013-04-28 09:47:00,
2013-04-28 05:52:00,34.6,33.1,30.25,NNW,345,0.0,0.0,94,0.00,CLR,FEW,0.00,16.0,WeatherDisplay:10.37,2013-04-28 09:52:00,
2013-04-28 05:57:00,34.4,32.9,30.25,NNW,345,0.0,0.0,94,0.00,SCT,FEW,0.00,21.0,WeatherDisplay:10.37,2013-04-28 09:57:00,
2013-04-28 06:02:00,34.4,32.9,30.25,NNW,345,0.0,0.0,94,0.00,SCT,FEW,0.00,26.0,WeatherDisplay:10.37,2013-04-28 10:02:00,
2013-04-28 06:07:00,34.8,33.5,30.25,NNW,345,0.0,0.0,95,0.00,SCT,FEW,0.00,35.0,WeatherDisplay:10.37,2013-04-28 10:07:00,
2013-04-28 06:12:00,35.0,33.7,30.25,NNW,345,0.0,0.0,95,0.00,SCT,FEW,0.00,46.0,WeatherDisplay:10.37,2013-04-28 10:12:00,
2013-04-28 06:17:00,35.3,34.0,30.25,NNW,345,0.0,0.0,95,0.00,CLR,FEW,0.00,58.0,WeatherDisplay:10.37,2013-04-28 10:17:00,
2013-04-28 06:22:00,35.6,34.3,30.25,NNW,345,0.0,0.0,95,0.00,FEW,,0.00,79.0,WeatherDisplay:10.37,2013-04-28 10:22:00,
2013-04-28 06:27:00,36.0,34.7,30.25,NNW,345,0.0,0.0,95,0.00,CLR,FEW,0.00,74.0,WeatherDisplay:10.37,2013-04-28 10:27:00,
2013-04-28 06:32:00,36.7,35.4,30.25,NNW,345,0.0,0.0,95,0.00,CLR,FEW,0.00,100.0,WeatherDisplay:10.37,2013-04-28 10:32:00,
2013-04-28 06:37:00,37.0,35.7,30.26,NNW,345,0.0,0.0,95,0.00,CLR,FEW,0.00,163.0,WeatherDisplay:10.37,2013-04-28 10:37:00,
2013-04-28 06:42:00,37.3,36.0,30.26,NNW,345,0.0,0.0,95,0.00,CLR,FEW,0.00,181.0,WeatherDisplay:10.37,2013-04-28 10:42:00,
2013-04-28 06:47:00,38.3,37.0,30.26,NNW,345,0.0,0.0,95,0.00,CLR,FEW,0.00,193.0,WeatherDisplay:10.37,2013-04-28 10:47:00,
2013-04-28 06:52:00,39.4,38.1,30.26,NNW,345,0.0,0.0,95,0.00,CLR,FEW,0.00,206.0,WeatherDisplay:10.37,2013-04-28 10:52:00,
2013-04-28 06:57:00,40.0,38.7,30.26,NNW,345,0.0,0.0,95,0.00,CLR,FEW,0.00,221.0,WeatherDisplay:10.37,2013-04-28 10:57:00,
2013-04-28 07:02:00,40.4,39.1,30.26,NNW,345,0.0,0.0,95,0.00,CLR,FEW,0.00,237.0,WeatherDisplay:10.37,2013-04-28 11:02:00,
2013-04-28 07:07:00,41.1,39.5,30.26,NNW,345,0.0,0.0,94,0.00,CLR,FEW,0.00,253.0,WeatherDisplay:10.37,2013-04-28 11:07:00,
2013-04-28 07:13:00,41.6,39.7,30.26,NNW,345,0.0,0.0,93,0.00,CLR,FEW,0.00,274.0,WeatherDisplay:10.37,2013-04-28 11:13:00,
2013-04-28 07:18:00,42.0,39.8,30.26,NNW,345,0.0,0.0,92,0.00,CLR,FEW,0.00,295.0,WeatherDisplay:10.37,2013-04-28 11:18:00,
2013-04-28 07:23:00,42.5,40.1,30.26,NNW,345,0.0,0.0,91,0.00,CLR,FEW,0.00,318.0,WeatherDisplay:10.37,2013-04-28 11:23:00,
2013-04-28 07:28:00,42.7,40.0,30.26,NNW,345,0.0,0.0,90,0.00,CLR,FEW,0.00,338.0,WeatherDisplay:10.37,2013-04-28 11:28:00,
2013-04-28 07:33:00,43.4,40.4,30.26,NNW,345,0.0,0.0,89,0.00,CLR,FEW,0.00,357.0,WeatherDisplay:10.37,2013-04-28 11:33:00,
2013-04-28 07:38:00,43.9,40.6,30.26,NNW,345,0.1,1.2,88,0.00,CLR,FEW,0.00,373.0,WeatherDisplay:10.37,2013-04-28 11:38:00,
2013-04-28 07:43:00,44.4,40.5,30.26,NNW,345,0.0,0.0,86,0.00,CLR,FEW,0.00,387.0,WeatherDisplay:10.37,2013-04-28 11:43:00,
2013-04-28 07:48:00,44.8,40.9,30.26,NNW,345,0.1,1.0,86,0.00,CLR,FEW,0.00,401.0,WeatherDisplay:10.37,2013-04-28 11:48:00,
2013-04-28 07:53:00,45.2,41.0,30.26,NNW,345,0.0,0.0,85,0.00,CLR,FEW,0.00,417.0,WeatherDisplay:10.37,2013-04-28 11:53:00,
2013-04-28 07:58:00,45.8,40.9,30.26,NNW,345,0.1,0.0,83,0.00,CLR,FEW,0.00,432.0,WeatherDisplay:10.37,2013-04-28 11:58:00,
2013-04-28 08:03:00,46.1,40.6,30.26,NNW,345,0.0,0.0,81,0.00,CLR,FEW,0.00,448.0,WeatherDisplay:10.37,2013-04-28 12:03:00,
2013-04-28 08:08:00,46.5,41.0,30.27,NNW,345,0.0,0.0,81,0.00,CLR,FEW,0.00,462.0,WeatherDisplay:10.37,2013-04-28 12:08:00,
2013-04-28 08:13:00,47.0,40.5,30.27,NNW,344,0.1,1.0,78,0.00,CLR,FEW,0.00,476.0,WeatherDisplay:10.37,2013-04-28 12:13:00,
2013-04-28 08:18:00,47.4,40.2,30.27,NNW,345,0.0,0.0,76,0.00,CLR,FEW,0.00,492.0,WeatherDisplay:10.37,2013-04-28 12:18:00,
2013-04-28 08:23:00,47.7,40.2,30.26,NNW,345,0.3,1.2,75,0.00,CLR,FEW,0.00,506.0,WeatherDisplay:10.37,2013-04-28 12:23:00,
2013-04-28 08:28:00,48.2,40.3,30.26,NNW,345,0.0,0.0,74,0.00,CLR,FEW,0.00,519.0,WeatherDisplay:10.37,2013-04-28 12:28:00,
2013-04-28 08:33:00,48.6,40.7,30.26,NNW,345,0.0,0.0,74,0.00,CLR,FEW,0.00,533.0,WeatherDisplay:10.37,2013-04-28 12:33:00,
2013-04-28 08:38:00,49.0,40.7,30.26,NNW,345,0.0,0.0,73,0.00,CLR,FEW,0.00,547.0,WeatherDisplay:10.37,2013-04-28 12:38:00,
2013-04-28 08:43:00,49.7,41.4,30.26,NNW,345,0.0,0.0,73,0.00,CLR,FEW,0.00,561.0,WeatherDisplay:10.37,2013-04-28 12:43:00,
2013-04-28 08:48:00,50.1,41.4,30.26,NNW,345,0.2,2.3,72,0.00,CLR,FEW,0.00,573.0,WeatherDisplay:10.37,2013-04-28 12:48:00,
2013-04-28 08:53:00,50.5,41.8,30.26,NNW,345,0.0,0.0,72,0.00,CLR,FEW,0.00,585.0,WeatherDisplay:10.37,2013-04-28 12:53:00,
2013-04-28 08:58:00,50.9,41.5,30.26,NNW,345,0.1,1.2,70,0.00,CLR,FEW,0.00,596.0,WeatherDisplay:10.37,2013-04-28 12:58:00,
2013-04-28 09:03:00,51.5,41.7,30.26,NNW,345,0.0,0.0,69,0.00,CLR,FEW,0.00,608.0,WeatherDisplay:10.37,2013-04-28 13:03:00,
2013-04-28 09:08:00,51.9,41.3,30.26,NNW,345,0.2,1.2,67,0.00,CLR,FEW,0.00,622.0,WeatherDisplay:10.37,2013-04-28 13:08:00,
2013-04-28 09:13:00,52.4,41.4,30.26,North,355,0.3,1.2,66,0.00,CLR,FEW,0.00,633.0,WeatherDisplay:10.37,2013-04-28 13:13:00,
2013-04-28 09:18:00,52.8,40.5,30.26,NNE,27,1.5,3.5,63,0.00,CLR,FEW,0.00,647.0,WeatherDisplay:10.37,2013-04-28 13:18:00,
2013-04-28 09:23:00,53.0,39.9,30.26,ENE,74,2.0,3.5,61,0.00,CLR,FEW,0.00,657.0,WeatherDisplay:10.37,2013-04-28 13:23:00,
2013-04-28 09:28:00,53.6,40.0,30.26,ENE,74,0.9,2.3,60,0.00,CLR,FEW,0.00,668.0,WeatherDisplay:10.37,2013-04-28 13:28:00,
2013-04-28 09:33:00,54.3,39.8,30.26,ENE,72,0.4,2.3,58,0.00,CLR,FEW,0.00,680.0,WeatherDisplay:10.37,2013-04-28 13:33:00,
2013-04-28 09:38:00,55.0,39.1,30.26,ENE,74,0.2,2.3,55,0.00,CLR,FEW,0.00,687.0,WeatherDisplay:10.37,2013-04-28 13:38:00,
2013-04-28 09:43:00,55.5,38.6,30.26,ENE,74,0.0,0.0,53,0.00,CLR,FEW,0.00,698.0,WeatherDisplay:10.37,2013-04-28 13:43:00,
2013-04-28 09:48:00,55.7,39.8,30.26,ENE,74,0.9,2.0,55,0.00,CLR,FEW,0.00,708.0,WeatherDisplay:10.37,2013-04-28 13:48:00,
2013-04-28 09:53:00,56.1,40.6,30.26,ENE,74,1.6,3.5,56,0.00,CLR,FEW,0.00,719.0,WeatherDisplay:10.37,2013-04-28 13:53:00,
2013-04-28 09:58:00,56.4,40.0,30.26,ENE,73,1.2,3.5,54,0.00,CLR,FEW,0.00,728.0,WeatherDisplay:10.37,2013-04-28 13:58:00,
2013-04-28 10:03:00,57.0,41.0,30.26,ENE,64,2.3,3.5,55,0.00,CLR,FEW,0.00,737.0,WeatherDisplay:10.37,2013-04-28 14:03:00,
2013-04-28 10:08:00,57.2,40.7,30.26,East,82,1.2,3.5,54,0.00,CLR,FEW,0.00,747.0,WeatherDisplay:10.37,2013-04-28 14:08:00,
2013-04-28 10:13:00,57.4,40.9,30.26,ENE,68,1.5,3.5,54,0.00,CLR,FEW,0.00,758.0,WeatherDisplay:10.37,2013-04-28 14:13:00,
2013-04-28 10:18:00,57.7,40.7,30.26,ENE,67,1.6,3.5,53,0.00,CLR,FEW,0.00,763.0,WeatherDisplay:10.37,2013-04-28 14:18:00,
2013-04-28 10:23:00,58.4,40.8,30.26,East,84,1.6,2.3,52,0.00,CLR,FEW,0.00,772.0,WeatherDisplay:10.37,2013-04-28 14:23:00,
2013-04-28 10:28:00,59.0,42.4,30.26,ENE,69,0.1,1.2,54,0.00,CLR,FEW,0.00,779.0,WeatherDisplay:10.37,2013-04-28 14:28:00,
2013-04-28 10:33:00,59.0,39.9,30.26,East,92,0.9,4.6,49,0.00,CLR,FEW,0.00,786.0,WeatherDisplay:10.37,2013-04-28 14:33:00,
2013-04-28 10:38:00,59.4,40.2,30.26,East,90,2.2,5.8,49,0.00,CLR,FEW,0.00,793.0,WeatherDisplay:10.37,2013-04-28 14:38:00,
2013-04-28 10:43:00,59.8,41.6,30.26,ESE,107,3.3,5.8,51,0.00,CLR,FEW,0.00,796.0,WeatherDisplay:10.37,2013-04-28 14:43:00,
2013-04-28 10:48:00,60.1,39.8,30.26,East,81,3.7,7.0,47,0.00,CLR,FEW,0.00,805.0,WeatherDisplay:10.37,2013-04-28 14:48:00,
2013-04-28 10:53:00,60.3,40.0,30.25,ESE,113,1.1,3.5,47,0.00,CLR,FEW,0.00,814.0,WeatherDisplay:10.37,2013-04-28 14:53:00,
2013-04-28 10:58:00,60.9,40.0,30.25,NE,51,1.2,3.5,46,0.00,CLR,FEW,0.00,816.0,WeatherDisplay:10.37,2013-04-28 14:58:00,
2013-04-28 11:03:00,60.9,40.5,30.25,East,84,1.9,4.6,47,0.00,CLR,FEW,0.00,819.0,WeatherDisplay:10.37,2013-04-28 15:03:00,
2013-04-28 11:08:00,61.0,40.6,30.25,East,79,1.0,4.0,47,0.00,CLR,FEW,0.00,826.0,WeatherDisplay:10.37,2013-04-28 15:08:00,
2013-04-28 11:13:00,62.0,40.4,30.25,ESE,115,0.9,2.0,45,0.00,CLR,FEW,0.00,821.0,WeatherDisplay:10.37,2013-04-28 15:13:00,
2013-04-28 11:18:00,62.2,40.0,30.25,East,86,1.4,4.6,44,0.00,CLR,FEW,0.00,846.0,WeatherDisplay:10.37,2013-04-28 15:18:00,
2013-04-28 11:23:00,61.9,40.3,30.24,NW,307,2.5,3.5,45,0.00,CLR,FEW,0.00,840.0,WeatherDisplay:10.37,2013-04-28 15:23:00,
2013-04-28 11:28:00,62.2,41.2,30.24,ESE,110,1.1,3.5,46,0.00,CLR,FEW,0.00,846.0,WeatherDisplay:10.37,2013-04-28 15:28:00,
2013-04-28 11:33:00,62.3,40.7,30.24,ESE,115,1.6,3.5,45,0.00,CLR,FEW,0.00,858.0,WeatherDisplay:10.37,2013-04-28 15:33:00,
2013-04-28 11:38:00,62.6,39.2,30.23,ESE,105,2.3,8.1,42,0.00,CLR,FEW,0.00,853.0,WeatherDisplay:10.37,2013-04-28 15:38:00,
2013-04-28 11:43:00,62.5,39.7,30.23,ENE,72,1.3,5.8,43,0.00,CLR,FEW,0.00,868.0,WeatherDisplay:10.37,2013-04-28 15:43:00,
2013-04-28 11:48:00,62.3,40.7,30.23,East,82,1.1,3.5,45,0.00,CLR,FEW,0.00,904.0,WeatherDisplay:10.37,2013-04-28 15:48:00,
2013-04-28 11:53:00,62.7,41.0,30.23,East,98,3.4,4.6,45,0.00,CLR,FEW,0.00,926.0,WeatherDisplay:10.37,2013-04-28 15:53:00,
2013-04-28 11:58:00,62.6,39.8,30.23,ENE,65,0.1,0.0,43,0.00,BKN,FEW,0.00,209.0,WeatherDisplay:10.37,2013-04-28 15:58:00,
2013-04-28 12:03:00,62.6,40.4,30.23,East,82,0.4,3.5,44,0.00,BKN,FEW,0.00,139.0,WeatherDisplay:10.37,2013-04-28 16:03:00,
2013-04-28 12:09:00,62.7,41.0,30.23,ESE,123,0.0,1.2,45,0.00,BKN,FEW,0.00,232.0,WeatherDisplay:10.37,2013-04-28 16:09:00,
2013-04-28 12:14:00,62.7,39.9,30.23,East,92,2.3,3.5,43,0.00,BKN,FEW,0.00,285.0,WeatherDisplay:10.37,2013-04-28 16:14:00,
2013-04-28 12:19:00,63.4,40.5,30.23,NNW,331,0.6,2.3,43,0.00,CLR,FEW,0.00,1028.0,WeatherDisplay:10.37,2013-04-28 16:19:00,
2013-04-28 12:24:00,64.0,39.8,30.22,ENE,61,2.1,3.5,41,0.00,CLR,FEW,0.00,1028.0,WeatherDisplay:10.37,2013-04-28 16:24:00,
2013-04-28 12:29:00,64.0,41.6,30.22,East,95,3.7,4.6,44,0.00,CLR,FEW,0.00,997.0,WeatherDisplay:10.37,2013-04-28 16:29:00,
2013-04-28 12:34:00,64.5,38.3,30.22,ENE,77,0.8,4.0,38,0.00,CLR,FEW,0.00,1002.0,WeatherDisplay:10.37,2013-04-28 16:34:00,
2013-04-28 12:39:00,64.4,39.5,30.21,WNW,296,0.9,4.0,40,0.00,CLR,FEW,0.00,993.0,WeatherDisplay:10.37,2013-04-28 16:39:00,
2013-04-28 12:44:00,63.8,42.6,30.21,WNW,296,2.2,7.0,46,0.00,BKN,FEW,0.00,250.0,WeatherDisplay:10.37,2013-04-28 16:44:00,
2013-04-28 12:49:00,64.3,41.9,30.21,ESE,103,1.2,2.3,44,0.00,BKN,FEW,0.00,239.0,WeatherDisplay:10.37,2013-04-28 16:49:00,
2013-04-28 12:54:00,64.6,41.6,30.21,ESE,113,0.4,3.0,43,0.00,BKN,FEW,0.00,195.0,WeatherDisplay:10.37,2013-04-28 16:54:00,
2013-04-28 12:59:00,63.9,41.0,30.21,East,88,0.2,2.3,43,0.00,BKN,FEW,0.00,355.0,WeatherDisplay:10.37,2013-04-28 16:59:00,
2013-04-28 13:04:00,63.8,42.0,30.21,East,87,0.6,2.3,45,0.00,BKN,FEW,0.00,232.0,WeatherDisplay:10.37,2013-04-28 17:04:00,
2013-04-28 13:09:00,63.6,40.1,30.20,East,85,0.4,1.2,42,0.00,BKN,FEW,0.00,255.0,WeatherDisplay:10.37,2013-04-28 17:09:00,
2013-04-28 13:14:00,63.6,40.1,30.20,East,99,0.4,1.2,42,0.00,BKN,FEW,0.00,287.0,WeatherDisplay:10.37,2013-04-28 17:14:00,
2013-04-28 13:19:00,64.1,40.5,30.20,NNE,32,0.4,2.3,42,0.00,BKN,FEW,0.00,306.0,WeatherDisplay:10.37,2013-04-28 17:19:00,
2013-04-28 13:24:00,63.9,40.3,30.20,South,179,0.8,3.5,42,0.00,BKN,FEW,0.00,422.0,WeatherDisplay:10.37,2013-04-28 17:24:00,
2013-04-28 13:29:00,63.8,40.3,30.20,NE,34,0.6,2.3,42,0.00,BKN,FEW,0.00,302.0,WeatherDisplay:10.37,2013-04-28 17:29:00,
2013-04-28 13:34:00,64.0,40.4,30.20,East,98,1.0,3.0,42,0.00,CLR,FEW,0.00,963.0,WeatherDisplay:10.37,2013-04-28 17:34:00,
2013-04-28 13:39:00,64.1,40.5,30.19,East,86,0.1,2.0,42,0.00,BKN,FEW,0.00,260.0,WeatherDisplay:10.37,2013-04-28 17:39:00,
2013-04-28 13:44:00,64.5,39.0,30.19,ENE,69,0.6,2.3,39,0.00,CLR,FEW,0.00,921.0,WeatherDisplay:10.37,2013-04-28 17:44:00,
2013-04-28 13:49:00,64.6,38.4,30.19,ENE,76,2.3,4.6,38,0.00,CLR,FEW,0.00,926.0,WeatherDisplay:10.37,2013-04-28 17:49:00,
2013-04-28 13:54:00,64.6,39.7,30.19,ESE,113,0.4,1.2,40,0.00,BKN,FEW,0.00,244.0,WeatherDisplay:10.37,2013-04-28 17:54:00,
2013-04-28 13:59:00,64.9,41.2,30.19,SE,128,0.0,0.0,42,0.00,BKN,FEW,0.00,236.0,WeatherDisplay:10.37,2013-04-28 17:59:00,
2013-04-28 14:04:00,64.7,39.2,30.19,NNE,19,2.7,3.5,39,0.00,CLR,FEW,0.00,981.0,WeatherDisplay:10.37,2013-04-28 18:04:00,
2013-04-28 14:09:00,65.4,42.3,30.18,East,86,3.8,5.0,43,0.00,BKN,FEW,0.00,232.0,WeatherDisplay:10.37,2013-04-28 18:09:00,
2013-04-28 14:14:00,65.1,38.8,30.18,WNW,302,1.0,2.0,38,0.00,BKN,FEW,0.00,241.0,WeatherDisplay:10.37,2013-04-28 18:14:00,
2013-04-28 14:19:00,65.8,41.4,30.18,NW,323,0.0,2.3,41,0.00,FEW,,0.00,654.0,WeatherDisplay:10.37,2013-04-28 18:19:00,
2013-04-28 14:24:00,66.4,39.3,30.18,East,92,3.3,5.8,37,0.00,CLR,FEW,0.00,911.0,WeatherDisplay:10.37,2013-04-28 18:24:00,
2013-04-28 14:29:00,67.1,44.4,30.18,East,86,1.2,3.0,44,0.00,CLR,FEW,0.00,868.0,WeatherDisplay:10.37,2013-04-28 18:29:00,
2013-04-28 14:34:00,67.4,39.5,30.18,East,88,0.7,5.8,36,0.00,CLR,FEW,0.00,867.0,WeatherDisplay:10.37,2013-04-28 18:34:00,
2013-04-28 14:39:00,66.7,38.9,30.18,NNE,22,3.0,5.8,36,0.00,CLR,FEW,0.00,812.0,WeatherDisplay:10.37,2013-04-28 18:39:00,
2013-04-28 14:44:00,66.3,39.9,30.18,WSW,248,0.7,2.3,38,0.00,CLR,FEW,0.00,795.0,WeatherDisplay:10.37,2013-04-28 18:44:00,
2013-04-28 14:49:00,66.3,40.6,30.18,North,5,1.3,3.0,39,0.00,CLR,FEW,0.00,731.0,WeatherDisplay:10.37,2013-04-28 18:49:00,
2013-04-28 14:54:00,66.2,40.5,30.17,East,83,1.8,6.0,39,0.00,CLR,FEW,0.00,707.0,WeatherDisplay:10.37,2013-04-28 18:54:00,
2013-04-28 14:59:00,66.5,41.4,30.17,South,187,0.5,3.5,40,0.00,FEW,,0.00,645.0,WeatherDisplay:10.37,2013-04-28 18:59:00,
2013-04-28 15:04:00,66.4,40.0,30.17,NE,38,1.9,4.6,38,0.00,CLR,FEW,0.00,710.0,WeatherDisplay:10.37,2013-04-28 19:04:00,
2013-04-28 15:09:00,65.8,39.5,30.16,NE,55,0.7,3.5,38,0.00,CLR,FEW,0.00,675.0,WeatherDisplay:10.37,2013-04-28 19:09:00,
2013-04-28 15:14:00,65.9,38.9,30.16,North,350,2.0,5.8,37,0.00,CLR,FEW,0.00,654.0,WeatherDisplay:10.37,2013-04-28 19:14:00,
2013-04-28 15:19:00,65.7,39.4,30.16,North,350,1.5,3.5,38,0.00,BKN,FEW,0.00,522.0,WeatherDisplay:10.37,2013-04-28 19:19:00,
2013-04-28 15:24:00,65.7,39.4,30.15,ENE,68,0.8,3.5,38,0.00,CLR,FEW,0.00,649.0,WeatherDisplay:10.37,2013-04-28 19:24:00,
2013-04-28 15:29:00,65.7,40.1,30.15,NE,47,2.1,4.0,39,0.00,CLR,FEW,0.00,640.0,WeatherDisplay:10.37,2013-04-28 19:29:00,
2013-04-28 15:34:00,66.2,40.5,30.15,ENE,75,2.1,5.8,39,0.00,CLR,FEW,0.00,561.0,WeatherDisplay:10.37,2013-04-28 19:34:00,
2013-04-28 15:39:00,66.4,41.3,30.15,SW,226,1.5,4.6,40,0.00,BKN,FEW,0.00,338.0,WeatherDisplay:10.37,2013-04-28 19:39:00,
2013-04-28 15:44:00,65.9,40.2,30.15,ESE,110,0.7,3.0,39,0.00,BKN,FEW,0.00,120.0,WeatherDisplay:10.37,2013-04-28 19:44:00,
2013-04-28 15:49:00,65.6,41.9,30.15,South,170,1.6,4.6,42,0.00,BKN,FEW,0.00,475.0,WeatherDisplay:10.37,2013-04-28 19:49:00,
2013-04-28 15:54:00,65.8,40.8,30.15,East,101,1.5,3.5,40,0.00,SCT,FEW,0.00,339.0,WeatherDisplay:10.37,2013-04-28 19:54:00,
2013-04-28 15:59:00,65.7,40.7,30.15,ESE,123,1.6,3.5,40,0.00,SCT,FEW,0.00,410.0,WeatherDisplay:10.37,2013-04-28 19:59:00,
2013-04-28 16:04:00,65.6,40.6,30.15,ESE,118,2.1,3.5,40,0.00,SCT,FEW,0.00,352.0,WeatherDisplay:10.37,2013-04-28 20:04:00,
2013-04-28 16:09:00,65.2,40.9,30.15,NNE,30,2.3,5.0,41,0.00,FEW,,0.00,478.0,WeatherDisplay:10.37,2013-04-28 20:09:00,
2013-04-28 16:14:00,65.3,40.3,30.15,East,98,1.8,4.0,40,0.00,SCT,FEW,0.00,392.0,WeatherDisplay:10.37,2013-04-28 20:14:00,
2013-04-28 16:19:00,65.0,40.1,30.15,West,259,1.4,3.0,40,0.00,SCT,FEW,0.00,401.0,WeatherDisplay:10.37,2013-04-28 20:19:00,
2013-04-28 16:24:00,65.0,40.7,30.14,North,360,3.0,5.0,41,0.00,SCT,FEW,0.00,262.0,WeatherDisplay:10.37,2013-04-28 20:24:00,
2013-04-28 16:29:00,64.9,40.0,30.14,West,273,1.9,3.5,40,0.00,SCT,FEW,0.00,327.0,WeatherDisplay:10.37,2013-04-28 20:29:00,
2013-04-28 16:34:00,65.0,40.1,30.14,SSW,205,2.1,4.6,40,0.00,SCT,FEW,0.00,338.0,WeatherDisplay:10.37,2013-04-28 20:34:00,
2013-04-28 16:39:00,65.2,40.3,30.14,SE,126,1.1,4.6,40,0.00,BKN,FEW,0.00,199.0,WeatherDisplay:10.37,2013-04-28 20:39:00,
2013-04-28 16:44:00,64.7,39.8,30.14,WNW,291,2.0,2.0,40,0.00,BKN,FEW,0.00,213.0,WeatherDisplay:10.37,2013-04-28 20:44:00,
2013-04-28 16:49:00,64.6,39.7,30.14,SSW,213,1.9,5.8,40,0.00,BKN,FEW,0.00,179.0,WeatherDisplay:10.37,2013-04-28 20:49:00,
2013-04-28 16:54:00,64.3,39.4,30.14,South,179,2.7,4.6,40,0.00,BKN,FEW,0.00,118.0,WeatherDisplay:10.37,2013-04-28 20:54:00,
2013-04-28 16:59:00,64.2,39.4,30.14,SE,131,2.2,5.8,40,0.00,SCT,FEW,0.00,243.0,WeatherDisplay:10.37,2013-04-28 20:59:00,
2013-04-28 17:04:00,64.1,39.3,30.14,ENE,76,0.8,3.5,40,0.00,FEW,,0.00,327.0,WeatherDisplay:10.37,2013-04-28 21:04:00,
2013-04-28 17:09:00,64.1,41.1,30.14,NW,304,1.4,3.5,43,0.00,FEW,,0.00,306.0,WeatherDisplay:10.37,2013-04-28 21:09:00,
2013-04-28 17:14:00,64.1,40.5,30.14,WSW,250,0.4,8.1,42,0.00,SCT,FEW,0.00,236.0,WeatherDisplay:10.37,2013-04-28 21:14:00,
2013-04-28 17:19:00,64.1,40.5,30.14,North,355,1.2,3.5,42,0.00,FEW,,0.00,272.0,WeatherDisplay:10.37,2013-04-28 21:19:00,
2013-04-28 17:24:00,64.0,39.8,30.14,ESE,105,2.3,3.5,41,0.00,BKN,FEW,0.00,174.0,WeatherDisplay:10.37,2013-04-28 21:24:00,
2013-04-28 17:29:00,63.8,39.6,30.14,WSW,250,0.3,4.6,41,0.00,SCT,FEW,0.00,153.0,WeatherDisplay:10.37,2013-04-28 21:29:00,
2013-04-28 17:34:00,63.6,39.5,30.14,West,281,2.1,3.5,41,0.00,FEW,,0.00,218.0,WeatherDisplay:10.37,2013-04-28 21:34:00,
2013-04-28 17:39:00,63.4,40.5,30.14,NNW,346,1.7,2.3,43,0.00,SCT,FEW,0.00,169.0,WeatherDisplay:10.37,2013-04-28 21:39:00,
2013-04-28 17:44:00,63.5,38.7,30.14,NE,46,1.9,4.0,40,0.00,BKN,FEW,0.00,118.0,WeatherDisplay:10.37,2013-04-28 21:44:00,
2013-04-28 17:49:00,63.3,39.8,30.14,West,267,2.1,3.5,42,0.00,SCT,FEW,0.00,167.0,WeatherDisplay:10.37,2013-04-28 21:49:00,
2013-04-28 17:54:00,63.2,39.1,30.14,North,350,1.1,2.0,41,0.00,FEW,,0.00,156.0,WeatherDisplay:10.37,2013-04-28 21:54:00,
2013-04-28 18:00:00,63.1,39.6,30.14,NE,49,0.8,1.2,42,0.00,SCT,FEW,0.00,167.0,WeatherDisplay:10.37,2013-04-28 22:00:00,
2013-04-28 18:04:00,62.9,40.1,30.14,NNE,26,1.0,9.0,43,0.00, +SHSN,FEW,0.00,153.0,WeatherDisplay:10.37,2013-04-28 22:04:00,
2013-04-28 18:10:00,62.7,38.7,30.14,WNW,302,1.0,5.0,41,0.00, +SHSN,FEW,0.00,118.0,WeatherDisplay:10.37,2013-04-28 22:10:00,
2013-04-28 18:15:00,62.5,39.1,30.14,SW,234,1.0,4.0,42,0.00, +SHSN,FEW,0.00,88.0,WeatherDisplay:10.37,2013-04-28 22:15:00,
2013-04-28 18:20:00,62.2,39.4,30.14,WNW,296,1.9,5.8,43,0.00,BKN,FEW,0.00,49.0,WeatherDisplay:10.37,2013-04-28 22:20:00,
2013-04-28 18:25:00,62.1,38.1,30.15,North,360,0.6,3.5,41,0.00,BKN,FEW,0.00,42.0,WeatherDisplay:10.37,2013-04-28 22:25:00,
2013-04-28 18:30:00,61.9,38.5,30.15,West,277,0.7,3.5,42,0.00,BKN,FEW,0.00,40.0,WeatherDisplay:10.37,2013-04-28 22:30:00,
2013-04-28 18:35:00,61.8,38.4,30.15,WNW,284,1.9,4.0,42,0.00,BKN,FEW,0.00,39.0,WeatherDisplay:10.37,2013-04-28 22:35:00,
2013-04-28 18:40:00,61.6,38.3,30.15,WNW,284,1.5,3.5,42,0.00,BKN,FEW,0.00,37.0,WeatherDisplay:10.37,2013-04-28 22:40:00,
2013-04-28 18:45:00,61.1,39.0,30.15,WNW,285,0.2,1.2,44,0.00,BKN,FEW,0.00,35.0,WeatherDisplay:10.37,2013-04-28 22:45:00,
2013-04-28 18:50:00,60.9,38.8,30.15,SE,126,1.7,4.6,44,0.00,BKN,FEW,0.00,32.0,WeatherDisplay:10.37,2013-04-28 22:50:00,
2013-04-28 18:55:00,60.9,38.8,30.15,NW,319,1.2,3.5,44,0.00,BKN,FEW,0.00,30.0,WeatherDisplay:10.37,2013-04-28 22:55:00,
2013-04-28 19:00:00,60.8,38.1,30.15,NE,46,2.1,4.6,43,0.00,BKN,FEW,0.00,28.0,WeatherDisplay:10.37,2013-04-28 23:00:00,
2013-04-28 19:05:00,60.6,38.6,30.15,West,262,2.1,3.5,44,0.00,BKN,FEW,0.00,26.0,WeatherDisplay:10.37,2013-04-28 23:05:00,
2013-04-28 19:10:00,60.2,38.8,30.15,North,5,2.3,3.5,45,0.00,BKN,FEW,0.00,23.0,WeatherDisplay:10.37,2013-04-28 23:10:00,
2013-04-28 19:15:00,59.6,38.2,30.15,NE,55,0.8,3.5,45,0.00,BKN,FEW,0.00,21.0,WeatherDisplay:10.37,2013-04-28 23:15:00,
2013-04-28 19:20:00,59.0,37.7,30.15,NE,55,0.0,0.0,45,0.00,BKN,FEW,0.00,18.0,WeatherDisplay:10.37,2013-04-28 23:20:00,
2013-04-28 19:25:00,58.4,37.1,30.15,NE,55,0.4,2.3,45,0.00,SCT,FEW,0.00,16.0,WeatherDisplay:10.37,2013-04-28 23:25:00,
2013-04-28 19:30:00,58.0,37.3,30.15,NE,55,0.0,0.0,46,0.00,SCT,FEW,0.00,11.0,WeatherDisplay:10.37,2013-04-28 23:30:00,
2013-04-28 19:35:00,57.5,37.9,30.15,NW,305,2.1,3.5,48,0.00,SCT,FEW,0.00,7.0,WeatherDisplay:10.37,2013-04-28 23:35:00,
2013-04-28 19:40:00,57.2,37.1,30.16,West,279,0.1,1.2,47,0.00,CLR,FEW,0.00,5.0,WeatherDisplay:10.37,2013-04-28 23:40:00,
2013-04-28 19:45:00,56.9,35.8,30.16,East,84,2.4,9.2,45,0.00,CLR,FEW,0.00,0.0,WeatherDisplay:10.37,2013-04-28 23:45:00,
2013-04-28 19:50:00,57.0,37.0,30.16,South,178,0.0,0.0,47,0.00,CLR,FEW,0.00,0.0,WeatherDisplay:10.37,2013-04-28 23:50:00,
2013-04-28 19:55:00,56.5,36.0,30.17,SE,129,0.0,0.0,46,0.00,CLR,FEW,0.00,0.0,WeatherDisplay:10.37,2013-04-28 23:55:00,
2013-04-28 20:00:00,56.2,34.6,30.17,ESE,103,0.5,2.3,44,0.00,CLR,FEW,0.00,0.0,WeatherDisplay:10.37,2013-04-29 00:00:00,
2013-04-28 20:05:00,56.3,34.1,30.17,ESE,121,0.8,2.3,43,0.00,CLR,FEW,0.00,0.0,WeatherDisplay:10.37,2013-04-29 00:05:00,
2013-04-28 20:10:00,55.9,34.8,30.17,WSW,253,0.4,2.3,45,0.00,CLR,FEW,0.00,0.0,WeatherDisplay:10.37,2013-04-29 00:10:00,
2013-04-28 20:15:00,55.7,35.2,30.17,WSW,253,0.0,0.0,46,0.00,CLR,FEW,0.00,0.0,WeatherDisplay:10.37,2013-04-29 00:15:00,
2013-04-28 20:20:00,55.3,34.3,30.17,East,88,0.7,3.5,45,0.00,CLR,FEW,0.00,0.0,WeatherDisplay:10.37,2013-04-29 00:20:00,
2013-04-28 20:25:00,55.0,35.1,30.18,East,87,0.0,0.0,47,0.00,CLR,FEW,0.00,0.0,WeatherDisplay:10.37,2013-04-29 00:25:00,
2013-04-28 20:30:00,54.6,33.7,30.18,East,87,0.0,0.0,45,0.00,CLR,FEW,0.00,0.0,WeatherDisplay:10.37,2013-04-29 00:30:00,
2013-04-28 20:35:00,54.6,34.2,30.18,ENE,65,0.0,1.2,46,0.00,CLR,FEW,0.00,0.0,WeatherDisplay:10.37,2013-04-29 00:35:00,
2013-04-28 20:40:00,54.4,34.6,30.18,ENE,65,0.0,1.2,47,0.00,CLR,FEW,0.00,0.0,WeatherDisplay:10.37,2013-04-29 00:40:00,
2013-04-28 20:45:00,54.2,33.3,30.18,ENE,74,0.7,2.3,45,0.00,CLR,FEW,0.00,0.0,WeatherDisplay:10.37,2013-04-29 00:45:00,
2013-04-28 20:50:00,54.1,33.8,30.18,ENE,67,1.2,3.5,46,0.00,CLR,FEW,0.00,0.0,WeatherDisplay:10.37,2013-04-29 00:50:00,
2013-04-28 20:55:00,53.9,34.1,30.18,East,83,1.0,3.5,47,0.00,CLR,FEW,0.00,0.0,WeatherDisplay:10.37,2013-04-29 00:55:00,
2013-04-28 21:00:00,53.8,33.5,30.18,East,94,0.0,0.0,46,0.00,CLR,FEW,0.00,0.0,WeatherDisplay:10.37,2013-04-29 01:00:00,
2013-04-28 21:05:00,53.3,34.6,30.18,East,94,0.0,0.0,49,0.00,CLR,FEW,0.00,0.0,WeatherDisplay:10.37,2013-04-29 01:05:00,
2013-04-28 21:10:00,52.4,34.3,30.18,East,94,0.0,0.0,50,0.00,CLR,FEW,0.00,0.0,WeatherDisplay:10.37,2013-04-29 01:10:00,
2013-04-28 21:15:00,51.5,34.4,30.18,East,94,0.0,0.0,52,0.00,CLR,FEW,0.00,0.0,WeatherDisplay:10.37,2013-04-29 01:15:00,
2013-04-28 21:20:00,50.9,34.4,30.18,East,94,0.0,0.0,53,0.00,CLR,FEW,0.00,0.0,WeatherDisplay:10.37,2013-04-29 01:20:00,
2013-04-28 21:25:00,50.3,33.8,30.18,East,94,0.0,0.0,53,0.00,CLR,FEW,0.00,0.0,WeatherDisplay:10.37,2013-04-29 01:25:00,
2013-04-28 21:30:00,49.9,34.4,30.18,East,94,0.0,0.0,55,0.00,CLR,FEW,0.00,0.0,WeatherDisplay:10.37,2013-04-29 01:30:00,
2013-04-28 21:35:00,49.5,34.4,30.18,East,94,0.0,0.0,56,0.00,CLR,FEW,0.00,0.0,WeatherDisplay:10.37,2013-04-29 01:35:00,
2013-04-28 21:40:00,49.1,34.1,30.19,East,94,0.0,0.0,56,0.00,CLR,FEW,0.00,0.0,WeatherDisplay:10.37,2013-04-29 01:40:00,
2013-04-28 21:45:00,48.8,35.5,30.19,East,94,0.0,0.0,60,0.00,CLR,FEW,0.00,0.0,WeatherDisplay:10.37,2013-04-29 01:45:00,
2013-04-28 21:50:00,48.5,34.4,30.19,East,94,0.0,0.0,58,0.00,CLR,FEW,0.00,0.0,WeatherDisplay:10.37,2013-04-29 01:50:00,
2013-04-28 21:55:00,48.3,35.5,30.19,East,94,0.0,0.0,61,0.00,CLR,FEW,0.00,0.0,WeatherDisplay:10.37,2013-04-29 01:55:00,
2013-04-28 22:00:00,48.1,35.7,30.19,East,94,0.0,0.0,62,0.00,CLR,FEW,0.00,0.0,WeatherDisplay:10.37,2013-04-29 02:00:00,
2013-04-28 22:05:00,47.7,34.9,30.19,East,94,0.0,0.0,61,0.00,CLR,FEW,0.00,0.0,WeatherDisplay:10.37,2013-04-29 02:05:00,
2013-04-28 22:10:00,47.4,35.4,30.20,East,94,0.0,1.2,63,0.00,CLR,FEW,0.00,0.0,WeatherDisplay:10.37,2013-04-29 02:10:00,
2013-04-28 22:15:00,47.4,35.4,30.20,East,94,0.0,0.0,63,0.00,CLR,FEW,0.00,0.0,WeatherDisplay:10.37,2013-04-29 02:15:00,
2013-04-28 22:20:00,47.2,35.2,30.20,East,94,0.0,0.0,63,0.00,CLR,FEW,0.00,0.0,WeatherDisplay:10.37,2013-04-29 02:20:00,
2013-04-28 22:25:00,46.9,35.4,30.19,East,94,0.0,0.0,64,0.00,CLR,FEW,0.00,0.0,WeatherDisplay:10.37,2013-04-29 02:25:00,
2013-04-28 22:30:00,46.6,35.1,30.19,East,94,0.2,1.0,64,0.00,CLR,FEW,0.00,0.0,WeatherDisplay:10.37,2013-04-29 02:30:00,
2013-04-28 22:35:00,46.3,35.2,30.19,East,94,0.0,1.2,65,0.00,CLR,FEW,0.00,0.0,WeatherDisplay:10.37,2013-04-29 02:35:00,
2013-04-28 22:40:00,46.0,34.9,30.19,East,94,0.0,0.0,65,0.00,CLR,FEW,0.00,0.0,WeatherDisplay:10.37,2013-04-29 02:40:00,
2013-04-28 22:45:00,45.7,35.0,30.19,East,94,0.0,0.0,66,0.00,CLR,FEW,0.00,0.0,WeatherDisplay:10.37,2013-04-29 02:45:00,
2013-04-28 22:50:00,45.4,35.1,30.19,East,94,0.0,0.0,67,0.00,CLR,FEW,0.00,0.0,WeatherDisplay:10.37,2013-04-29 02:50:00,
2013-04-28 22:55:00,45.1,34.8,30.19,East,94,0.0,0.0,67,0.00,CLR,FEW,0.00,0.0,WeatherDisplay:10.37,2013-04-29 02:55:00,
2013-04-28 23:00:00,44.9,34.6,30.19,East,94,0.0,0.0,67,0.00,CLR,FEW,0.00,0.0,WeatherDisplay:10.37,2013-04-29 03:00:00,
2013-04-28 23:05:00,44.5,35.0,30.19,East,94,0.0,0.0,69,0.00,CLR,FEW,0.00,0.0,WeatherDisplay:10.37,2013-04-29 03:05:00,
2013-04-28 23:10:00,44.2,34.3,30.19,East,94,0.0,0.0,68,0.00,CLR,FEW,0.00,0.0,WeatherDisplay:10.37,2013-04-29 03:10:00,
2013-04-28 23:15:00,44.0,34.5,30.19,East,94,0.0,0.0,69,0.00,CLR,FEW,0.00,0.0,WeatherDisplay:10.37,2013-04-29 03:15:00,
2013-04-28 23:20:00,43.9,34.4,30.19,East,94,0.0,0.0,69,0.00,CLR,FEW,0.00,0.0,WeatherDisplay:10.37,2013-04-29 03:20:00,
2013-04-28 23:25:00,43.7,34.9,30.19,East,94,0.0,0.0,71,0.00,CLR,FEW,0.00,0.0,WeatherDisplay:10.37,2013-04-29 03:25:00,
2013-04-28 23:30:00,43.4,34.3,30.19,East,94,0.0,0.0,70,0.00,CLR,FEW,0.00,0.0,WeatherDisplay:10.37,2013-04-29 03:30:00,
2013-04-28 23:35:00,43.1,34.3,30.19,East,94,0.0,0.0,71,0.00,CLR,FEW,0.00,0.0,WeatherDisplay:10.37,2013-04-29 03:35:00,
2013-04-28 23:40:00,43.0,34.6,30.19,East,94,0.0,0.0,72,0.00,CLR,FEW,0.00,0.0,WeatherDisplay:10.37,2013-04-29 03:40:00,
2013-04-28 23:45:00,42.8,34.7,30.19,East,94,0.0,0.0,73,0.00,CLR,FEW,0.00,0.0,WeatherDisplay:10.37,2013-04-29 03:45:00,
2013-04-28 23:50:00,42.7,34.6,30.19,East,94,0.0,0.0,73,0.00,CLR,FEW,0.00,0.0,WeatherDisplay:10.37,2013-04-29 03:50:00,
2013-04-28 23:55:00,42.7,34.6,30.19,East,94,0.0,0.0,73,0.00,CLR,FEW,0.00,0.0,WeatherDisplay:10.37,2013-04-29 03:55:00,